createdAt,value
2017-08-24T00:00:50.560Z,0
2017-08-24T00:01:50.848Z,0
2017-08-24T00:02:50.259Z,0
2017-08-24T00:03:50.838Z,0
2017-08-24T00:04:50.836Z,0
2017-08-24T00:05:50.819Z,0
2017-08-24T00:06:50.803Z,0
2017-08-24T00:07:50.485Z,0
2017-08-24T00:08:50.466Z,0
2017-08-24T00:09:50.779Z,0
2017-08-24T00:10:50.779Z,0
2017-08-24T00:11:50.752Z,0
2017-08-24T00:12:50.744Z,0
2017-08-24T00:14:05.033Z,0
2017-08-24T00:14:50.108Z,0
2017-08-24T00:16:04.604Z,0
2017-08-24T00:16:50.391Z,0
2017-08-24T00:17:50.685Z,0
2017-08-24T00:18:50.078Z,0
2017-08-24T00:19:50.867Z,0
2017-08-24T00:20:50.649Z,0
2017-08-24T00:21:50.040Z,0
2017-08-24T00:22:50.341Z,0
2017-08-24T00:23:50.330Z,0
2017-08-24T00:24:50.613Z,0
2017-08-24T00:25:50.810Z,0
2017-08-24T00:26:50.294Z,0
2017-08-24T00:27:50.274Z,0
2017-08-24T00:28:50.257Z,0
2017-08-24T00:29:49.949Z,0
2017-08-24T00:30:49.938Z,0
2017-08-24T00:31:50.244Z,0
2017-08-24T00:32:50.531Z,0
2017-08-24T00:33:50.529Z,0
2017-08-24T00:34:50.526Z,0
2017-08-24T00:35:50.204Z,0
2017-08-24T00:36:50.188Z,0
2017-08-24T00:37:50.492Z,0
2017-08-24T00:38:50.477Z,0
2017-08-24T00:39:50.460Z,0
2017-08-24T00:40:50.456Z,0
2017-08-24T00:41:50.142Z,0
2017-08-24T00:42:50.432Z,0
2017-08-24T00:43:50.424Z,0
2017-08-24T00:44:50.419Z,0
2017-08-24T00:45:50.097Z,0
2017-08-24T00:46:50.598Z,0
2017-08-24T00:47:50.383Z,0
2017-08-24T00:48:50.374Z,0
2017-08-24T00:49:50.069Z,0
2017-08-24T00:50:50.349Z,0
2017-08-24T00:51:50.149Z,0
2017-08-24T00:52:50.025Z,0
2017-08-24T00:53:50.017Z,0
2017-08-24T00:54:50.303Z,0
2017-08-24T00:55:50.303Z,0
2017-08-24T00:56:50.496Z,0
2017-08-24T00:57:50.274Z,0
2017-08-24T00:58:49.968Z,0
2017-08-24T00:59:49.956Z,0
2017-08-24T01:00:50.243Z,0
2017-08-24T01:01:50.225Z,0
2017-08-24T01:02:50.213Z,0
2017-08-24T01:03:50.210Z,0
2017-08-24T01:04:50.195Z,0
2017-08-24T01:05:50.204Z,0
2017-08-24T01:06:49.868Z,0
2017-08-24T01:07:50.163Z,0
2017-08-24T01:08:49.858Z,0
2017-08-24T01:09:50.159Z,0
2017-08-24T01:10:49.835Z,0
2017-08-24T01:11:50.132Z,0
2017-08-24T01:12:50.115Z,0
2017-08-24T01:13:50.112Z,0
2017-08-24T01:14:50.109Z,0
2017-08-24T01:15:49.775Z,0
2017-08-24T01:16:49.762Z,0
2017-08-24T01:17:50.069Z,0
2017-08-24T01:18:50.068Z,0
2017-08-24T01:19:50.041Z,0
2017-08-24T01:20:50.064Z,0
2017-08-24T01:21:50.036Z,0
2017-08-24T01:22:50.015Z,0
2017-08-24T01:23:49.899Z,0
2017-08-24T01:24:50.004Z,0
2017-08-24T01:25:49.990Z,0
2017-08-24T01:26:49.979Z,0
2017-08-24T01:27:49.962Z,0
2017-08-24T01:28:49.940Z,0
2017-08-24T01:29:50.155Z,0
2017-08-24T01:30:49.915Z,0
2017-08-24T01:31:49.947Z,0
2017-08-24T01:32:49.905Z,0
2017-08-24T01:33:49.794Z,0
2017-08-24T01:35:03.529Z,0
2017-08-24T01:35:49.864Z,0
2017-08-24T01:36:49.884Z,0
2017-08-24T01:37:49.866Z,0
2017-08-24T01:38:49.851Z,0
2017-08-24T01:39:49.543Z,0
2017-08-24T01:40:49.822Z,0
2017-08-24T01:41:49.809Z,0
2017-08-24T01:42:49.802Z,0
2017-08-24T01:43:49.796Z,0
2017-08-24T01:44:49.768Z,0
2017-08-24T01:45:49.773Z,0
2017-08-24T01:46:49.759Z,0
2017-08-24T01:47:49.446Z,0
2017-08-24T01:48:49.737Z,0
2017-08-24T01:49:49.428Z,0
2017-08-24T01:50:49.718Z,0
2017-08-24T01:51:49.400Z,0
2017-08-24T01:52:49.701Z,0
2017-08-24T01:53:49.701Z,0
2017-08-24T01:54:49.366Z,0
2017-08-24T01:55:49.360Z,0
2017-08-24T01:56:49.670Z,0
2017-08-24T01:57:49.338Z,0
2017-08-24T01:58:49.337Z,0
2017-08-24T01:59:49.021Z,0
2017-08-24T02:00:49.830Z,0
2017-08-24T02:01:49.614Z,0
2017-08-24T02:02:49.604Z,0
2017-08-24T02:03:49.594Z,0
2017-08-24T02:04:49.588Z,0
2017-08-24T02:05:49.579Z,0
2017-08-24T02:06:49.767Z,0
2017-08-24T02:07:49.534Z,0
2017-08-24T02:08:49.239Z,0
2017-08-24T02:09:49.537Z,0
2017-08-24T02:10:49.516Z,0
2017-08-24T02:11:49.489Z,0
2017-08-24T02:12:49.186Z,0
2017-08-24T02:13:49.182Z,0
2017-08-24T02:14:49.175Z,0
2017-08-24T02:15:49.151Z,0
2017-08-24T02:16:49.460Z,0
2017-08-24T02:17:49.471Z,0
2017-08-24T02:18:49.438Z,0
2017-08-24T02:19:49.428Z,0
2017-08-24T02:20:49.433Z,0
2017-08-24T02:21:49.409Z,0
2017-08-24T02:22:49.396Z,0
2017-08-24T02:23:49.374Z,0
2017-08-24T02:24:49.370Z,0
2017-08-24T02:25:49.357Z,0
2017-08-24T02:26:49.364Z,0
2017-08-24T02:27:49.344Z,0
2017-08-24T02:28:49.328Z,0
2017-08-24T02:29:49.319Z,0
2017-08-24T02:30:49.313Z,0
2017-08-24T02:31:49.300Z,0
2017-08-24T02:32:49.310Z,0
2017-08-24T02:33:49.274Z,0
2017-08-24T02:34:49.299Z,0
2017-08-24T02:35:49.273Z,0
2017-08-24T02:36:49.251Z,0
2017-08-24T02:37:49.462Z,0
2017-08-24T02:38:48.924Z,0
2017-08-24T02:39:49.227Z,0
2017-08-24T02:40:48.910Z,0
2017-08-24T02:41:48.905Z,0
2017-08-24T02:42:48.583Z,0
2017-08-24T02:43:49.393Z,0
2017-08-24T02:44:48.881Z,0
2017-08-24T02:45:49.160Z,0
2017-08-24T02:46:49.163Z,0
2017-08-24T02:47:49.353Z,0
2017-08-24T02:48:49.351Z,0
2017-08-24T02:49:49.136Z,0
2017-08-24T02:50:49.122Z,0
2017-08-24T02:51:48.798Z,0
2017-08-24T02:52:49.108Z,0
2017-08-24T02:53:49.080Z,0
2017-08-24T02:54:49.085Z,0
2017-08-24T02:55:49.074Z,0
2017-08-24T02:56:49.063Z,0
2017-08-24T02:57:49.050Z,0
2017-08-24T02:58:49.038Z,0
2017-08-24T02:59:49.036Z,0
2017-08-24T03:00:49.021Z,0
2017-08-24T03:01:48.717Z,0
2017-08-24T03:02:49.027Z,0
2017-08-24T03:03:48.993Z,0
2017-08-24T03:04:48.985Z,0
2017-08-24T03:05:48.981Z,0
2017-08-24T03:06:48.953Z,0
2017-08-24T03:07:48.652Z,0
2017-08-24T03:08:48.945Z,0
2017-08-24T03:09:48.935Z,0
2017-08-24T03:10:48.908Z,0
2017-08-24T03:11:48.918Z,0
2017-08-24T03:12:48.904Z,0
2017-08-24T03:13:48.587Z,0
2017-08-24T03:14:48.880Z,0
2017-08-24T03:15:48.869Z,0
2017-08-24T03:16:48.862Z,0
2017-08-24T03:17:48.846Z,0
2017-08-24T03:18:48.832Z,0
2017-08-24T03:19:49.040Z,0
2017-08-24T03:20:48.504Z,0
2017-08-24T03:21:48.812Z,0
2017-08-24T03:22:48.187Z,0
2017-08-24T03:23:48.791Z,0
2017-08-24T03:24:48.784Z,0
2017-08-24T03:25:48.764Z,0
2017-08-24T03:26:48.773Z,0
2017-08-24T03:27:48.444Z,0
2017-08-24T03:28:48.737Z,0
2017-08-24T03:29:48.731Z,0
2017-08-24T03:30:48.714Z,0
2017-08-24T03:31:48.703Z,0
2017-08-24T03:32:48.691Z,0
2017-08-24T03:33:48.686Z,0
2017-08-24T03:34:48.659Z,0
2017-08-24T03:35:48.655Z,0
2017-08-24T03:36:48.352Z,0
2017-08-24T03:37:48.655Z,0
2017-08-24T03:38:48.618Z,0
2017-08-24T03:39:48.646Z,0
2017-08-24T03:40:48.607Z,0
2017-08-24T03:41:48.611Z,0
2017-08-24T03:42:48.599Z,0
2017-08-24T03:43:48.326Z,0
2017-08-24T03:44:47.958Z,0
2017-08-24T03:45:48.558Z,0
2017-08-24T03:46:48.557Z,0
2017-08-24T03:47:48.536Z,0
2017-08-24T03:48:47.928Z,0
2017-08-24T03:49:48.564Z,0
2017-08-24T03:50:48.522Z,0
2017-08-24T03:51:48.512Z,0
2017-08-24T03:52:48.513Z,0
2017-08-24T03:53:48.489Z,0
2017-08-24T03:54:48.518Z,4
2017-08-24T03:55:48.473Z,4
2017-08-24T03:56:48.461Z,4
2017-08-24T03:57:48.151Z,4
2017-08-24T03:58:48.429Z,8
2017-08-24T03:59:48.432Z,8
2017-08-24T04:00:48.403Z,8
2017-08-24T04:01:48.413Z,8
2017-08-24T04:02:48.125Z,8
2017-08-24T04:03:48.385Z,12
2017-08-24T04:04:47.767Z,16
2017-08-24T04:05:48.052Z,16
2017-08-24T04:06:48.358Z,16
2017-08-24T04:07:48.343Z,28
2017-08-24T04:08:48.333Z,32
2017-08-24T04:09:48.330Z,36
2017-08-24T04:10:48.309Z,40
2017-08-24T04:11:47.702Z,60
2017-08-24T04:12:47.994Z,80
2017-08-24T04:13:48.278Z,104
2017-08-24T04:14:47.979Z,124
2017-08-24T04:15:48.265Z,148
2017-08-24T04:16:47.645Z,152
2017-08-24T04:17:47.949Z,180
2017-08-24T04:18:47.625Z,216
2017-08-24T04:19:47.918Z,244
2017-08-24T04:20:47.909Z,268
2017-08-24T04:21:47.908Z,272
2017-08-24T04:22:47.908Z,296
2017-08-24T04:23:47.882Z,284
2017-08-24T04:24:48.182Z,276
2017-08-24T04:25:47.857Z,364
2017-08-24T04:26:48.165Z,392
2017-08-24T04:27:48.140Z,484
2017-08-24T04:28:48.119Z,464
2017-08-24T04:29:48.118Z,440
2017-08-24T04:30:47.805Z,480
2017-08-24T04:31:48.110Z,584
2017-08-24T04:32:48.082Z,648
2017-08-24T04:33:48.086Z,772
2017-08-24T04:34:48.078Z,696
2017-08-24T04:35:48.065Z,752
2017-08-24T04:36:47.766Z,700
2017-08-24T04:37:48.044Z,864
2017-08-24T04:38:48.035Z,1044
2017-08-24T04:39:48.028Z,1292
2017-08-24T04:40:48.021Z,1104
2017-08-24T04:41:48.007Z,1236
2017-08-24T04:42:47.988Z,1456
2017-08-24T04:43:47.681Z,1676
2017-08-24T04:44:47.964Z,1380
2017-08-24T04:45:47.965Z,1456
2017-08-24T04:46:47.951Z,1364
2017-08-24T04:47:47.939Z,1148
2017-08-24T04:48:47.625Z,1200
2017-08-24T04:49:47.919Z,1796
2017-08-24T04:50:47.923Z,1720
2017-08-24T04:51:47.598Z,1580
2017-08-24T04:52:47.896Z,1588
2017-08-24T04:53:47.875Z,1776
2017-08-24T04:54:47.883Z,1828
2017-08-24T04:55:47.850Z,1804
2017-08-24T04:56:47.852Z,1980
2017-08-24T04:57:47.832Z,2020
2017-08-24T04:58:47.829Z,2332
2017-08-24T04:59:47.810Z,2068
2017-08-24T05:00:47.813Z,2284
2017-08-24T05:01:47.807Z,1812
2017-08-24T05:02:47.799Z,1940
2017-08-24T05:03:47.169Z,2200
2017-08-24T05:04:47.470Z,2804
2017-08-24T05:05:47.755Z,4048
2017-08-24T05:06:47.155Z,3164
2017-08-24T05:07:47.737Z,3584
2017-08-24T05:08:47.733Z,3288
2017-08-24T05:09:47.118Z,3036
2017-08-24T05:10:47.397Z,3176
2017-08-24T05:11:47.702Z,3260
2017-08-24T05:12:47.699Z,4672
2017-08-24T05:13:47.377Z,4032
2017-08-24T05:14:47.063Z,5148
2017-08-24T05:15:47.355Z,4896
2017-08-24T05:16:47.665Z,5316
2017-08-24T05:17:47.657Z,5360
2017-08-24T05:18:47.327Z,4436
2017-08-24T05:19:47.618Z,3744
2017-08-24T05:20:47.301Z,4292
2017-08-24T05:21:47.591Z,3604
2017-08-24T05:22:47.291Z,4108
2017-08-24T05:23:47.297Z,5060
2017-08-24T05:24:47.255Z,5148
2017-08-24T05:25:47.265Z,7840
2017-08-24T05:26:47.562Z,7708
2017-08-24T05:27:47.234Z,7996
2017-08-24T05:28:47.234Z,9664
2017-08-24T05:29:47.508Z,13628
2017-08-24T05:30:47.200Z,13500
2017-08-24T05:31:46.903Z,6892
2017-08-24T05:32:47.486Z,8532
2017-08-24T05:33:47.487Z,5984
2017-08-24T05:34:47.176Z,8996
2017-08-24T05:35:47.465Z,7660
2017-08-24T05:36:47.453Z,7008
2017-08-24T05:37:47.442Z,7764
2017-08-24T05:38:47.422Z,9136
2017-08-24T05:39:47.420Z,11052
2017-08-24T05:40:47.424Z,16672
2017-08-24T05:41:47.410Z,11284
2017-08-24T05:42:47.088Z,8256
2017-08-24T05:43:46.770Z,14728
2017-08-24T05:44:47.062Z,12100
2017-08-24T05:45:47.055Z,12280
2017-08-24T05:46:47.051Z,16704
2017-08-24T05:47:47.339Z,18880
2017-08-24T05:48:47.340Z,20384
2017-08-24T05:49:47.026Z,22272
2017-08-24T05:50:47.302Z,18304
2017-08-24T05:51:47.003Z,11484
2017-08-24T05:52:47.308Z,25728
2017-08-24T05:53:46.993Z,25504
2017-08-24T05:54:47.286Z,15232
2017-08-24T05:55:46.964Z,19904
2017-08-24T05:56:46.949Z,20864
2017-08-24T05:57:47.262Z,21312
2017-08-24T05:58:47.251Z,22496
2017-08-24T05:59:47.243Z,22080
2017-08-24T06:00:47.221Z,21568
2017-08-24T06:01:47.214Z,23008
2017-08-24T06:02:47.209Z,24320
2017-08-24T06:03:47.196Z,24608
2017-08-24T06:04:47.183Z,25856
2017-08-24T06:05:46.876Z,21856
2017-08-24T06:06:47.158Z,25088
2017-08-24T06:07:46.852Z,21056
2017-08-24T06:08:47.187Z,21184
2017-08-24T06:09:47.146Z,23456
2017-08-24T06:10:47.146Z,22848
2017-08-24T06:11:47.120Z,24096
2017-08-24T06:12:47.124Z,25088
2017-08-24T06:13:47.108Z,28128
2017-08-24T06:14:47.096Z,26368
2017-08-24T06:15:47.074Z,26368
2017-08-24T06:16:47.070Z,26368
2017-08-24T06:17:46.763Z,25696
2017-08-24T06:18:47.077Z,25248
2017-08-24T06:19:46.741Z,27872
2017-08-24T06:20:46.733Z,28224
2017-08-24T06:21:47.038Z,27552
2017-08-24T06:22:46.411Z,30432
2017-08-24T06:23:47.018Z,29152
2017-08-24T06:24:47.001Z,22176
2017-08-24T06:25:47.020Z,18240
2017-08-24T06:26:46.388Z,19488
2017-08-24T06:27:46.678Z,21888
2017-08-24T06:28:46.986Z,28224
2017-08-24T06:29:46.977Z,31040
2017-08-24T06:30:46.646Z,30240
2017-08-24T06:31:46.653Z,34208
2017-08-24T06:32:46.949Z,34624
2017-08-24T06:33:46.941Z,30784
2017-08-24T06:34:46.914Z,34432
2017-08-24T06:35:46.903Z,32736
2017-08-24T06:36:46.916Z,33984
2017-08-24T06:37:46.292Z,34080
2017-08-24T06:38:46.604Z,33568
2017-08-24T06:39:46.899Z,35808
2017-08-24T06:40:46.891Z,39872
2017-08-24T06:41:46.871Z,41216
2017-08-24T06:42:46.568Z,37728
2017-08-24T06:43:46.851Z,34208
2017-08-24T06:44:46.847Z,36704
2017-08-24T06:45:46.860Z,40384
2017-08-24T06:46:46.842Z,38560
2017-08-24T06:47:46.829Z,40256
2017-08-24T06:48:46.515Z,40160
2017-08-24T06:49:46.814Z,38048
2017-08-24T06:50:46.812Z,38368
2017-08-24T06:51:46.806Z,40160
2017-08-24T06:52:46.790Z,40096
2017-08-24T06:53:46.479Z,40960
2017-08-24T06:54:46.480Z,41664
2017-08-24T06:55:46.468Z,40864
2017-08-24T06:56:46.771Z,42912
2017-08-24T06:57:46.759Z,48032
2017-08-24T06:58:46.448Z,14224
2017-08-24T06:59:46.445Z,49760
2017-08-24T07:00:46.725Z,35008
2017-08-24T07:01:46.709Z,27360
2017-08-24T07:02:46.718Z,19072
2017-08-24T07:03:46.711Z,27904
2017-08-24T07:04:46.695Z,30688
2017-08-24T07:05:46.680Z,42432
2017-08-24T07:06:46.683Z,50592
2017-08-24T07:07:46.687Z,44160
2017-08-24T07:08:46.669Z,42592
2017-08-24T07:09:46.663Z,48544
2017-08-24T07:10:46.663Z,52320
2017-08-24T07:11:46.641Z,52448
2017-08-24T07:12:46.642Z,53952
2017-08-24T07:13:46.643Z,50656
2017-08-24T07:14:46.633Z,48320
2017-08-24T07:15:46.632Z,45632
2017-08-24T07:16:46.615Z,43648
2017-08-24T07:17:46.598Z,53216
2017-08-24T07:18:46.595Z,52224
2017-08-24T07:19:46.589Z,42432
2017-08-24T07:20:46.586Z,48096
2017-08-24T07:21:46.587Z,48192
2017-08-24T07:22:46.580Z,48992
2017-08-24T07:23:46.256Z,49952
2017-08-24T07:24:46.560Z,49024
2017-08-24T07:25:46.256Z,41312
2017-08-24T07:26:46.547Z,48128
2017-08-24T07:27:46.530Z,52128
2017-08-24T07:28:46.534Z,54656
2017-08-24T07:29:46.513Z,55232
2017-08-24T07:30:46.509Z,55360
2017-08-24T07:31:46.206Z,55936
2017-08-24T07:32:46.194Z,53952
2017-08-24T07:33:46.503Z,58944
2017-08-24T07:34:46.485Z,49248
2017-08-24T07:35:46.485Z,34880
2017-08-24T07:36:46.474Z,32960
2017-08-24T07:37:46.468Z,36512
2017-08-24T07:38:46.452Z,50336
2017-08-24T07:39:46.455Z,55552
2017-08-24T07:40:46.448Z,51200
2017-08-24T07:41:46.444Z,54336
2017-08-24T07:42:46.429Z,51104
2017-08-24T07:43:46.467Z,50848
2017-08-24T07:44:46.449Z,52576
2017-08-24T07:45:46.418Z,54912
2017-08-24T07:46:46.412Z,60608
2017-08-24T07:47:46.399Z,55392
2017-08-24T07:48:46.388Z,55264
2017-08-24T07:49:46.097Z,59232
2017-08-24T07:50:46.078Z,58496
2017-08-24T07:51:46.417Z,54208
2017-08-24T07:52:46.362Z,57760
2017-08-24T07:53:46.356Z,61504
2017-08-24T07:54:46.392Z,57856
2017-08-24T07:55:46.351Z,56736
2017-08-24T07:56:46.333Z,51360
2017-08-24T07:57:46.329Z,49600
2017-08-24T07:58:46.335Z,52736
2017-08-24T07:59:46.313Z,52160
2017-08-24T08:00:46.013Z,55008
2017-08-24T08:01:46.340Z,60928
2017-08-24T08:02:46.287Z,67552
2017-08-24T08:03:45.981Z,79648
2017-08-24T08:04:45.987Z,74144
2017-08-24T08:05:46.287Z,62240
2017-08-24T08:06:46.293Z,59232
2017-08-24T08:07:46.278Z,59520
2017-08-24T08:08:46.266Z,67456
2017-08-24T08:09:45.952Z,75968
2017-08-24T08:10:46.237Z,79296
2017-08-24T08:11:45.942Z,76096
2017-08-24T08:12:45.928Z,66976
2017-08-24T08:13:45.921Z,63328
2017-08-24T08:14:46.219Z,55360
2017-08-24T08:15:46.220Z,55360
2017-08-24T08:16:46.212Z,57344
2017-08-24T08:17:46.206Z,64896
2017-08-24T08:18:46.192Z,70144
2017-08-24T08:19:46.196Z,71328
2017-08-24T08:20:46.206Z,80960
2017-08-24T08:21:46.174Z,81536
2017-08-24T08:22:46.174Z,83296
2017-08-24T08:23:46.163Z,83648
2017-08-24T08:24:46.149Z,84000
2017-08-24T08:25:46.165Z,83680
2017-08-24T08:26:45.857Z,78912
2017-08-24T08:30:17.926Z,82944
2017-08-24T08:30:46.155Z,82624
2017-08-24T08:31:46.116Z,76576
2017-08-24T08:32:45.817Z,83616
2017-08-24T08:33:46.116Z,81056
2017-08-24T08:34:45.839Z,81024
2017-08-24T08:35:46.094Z,96384
2017-08-24T08:36:46.114Z,96992
2017-08-24T08:37:46.072Z,89568
2017-08-24T08:38:46.082Z,84640
2017-08-24T08:39:46.069Z,83584
2017-08-24T08:40:46.065Z,81600
2017-08-24T08:41:46.072Z,77344
2017-08-24T08:42:46.050Z,80928
2017-08-24T08:43:46.048Z,90496
2017-08-24T08:44:46.294Z,88352
2017-08-24T08:45:45.720Z,72224
2017-08-24T08:46:45.726Z,63616
2017-08-24T08:47:45.405Z,67680
2017-08-24T08:48:46.014Z,85248
2017-08-24T08:49:45.387Z,99392
2017-08-24T08:50:45.385Z,78592
2017-08-24T08:51:45.996Z,59744
2017-08-24T08:52:45.984Z,71040
2017-08-24T08:53:45.974Z,82336
2017-08-24T08:54:45.988Z,83712
2017-08-24T08:55:45.671Z,93216
2017-08-24T08:56:45.970Z,102592
2017-08-24T08:57:45.967Z,104416
2017-08-24T08:58:45.635Z,113280
2017-08-24T08:59:45.953Z,120064
2017-08-24T09:00:45.621Z,112992
2017-08-24T09:01:45.635Z,101952
2017-08-24T09:02:44.991Z,95520
2017-08-24T09:03:45.604Z,90656
2017-08-24T09:04:45.597Z,88768
2017-08-24T09:05:45.607Z,89952
2017-08-24T09:06:45.594Z,91776
2017-08-24T09:07:45.588Z,92256
2017-08-24T09:08:45.887Z,92544
2017-08-24T09:09:45.879Z,93696
2017-08-24T09:10:45.861Z,94304
2017-08-24T09:11:45.547Z,95712
2017-08-24T09:12:45.869Z,95712
2017-08-24T09:13:45.544Z,95104
2017-08-24T09:14:45.220Z,95072
2017-08-24T09:15:45.854Z,98368
2017-08-24T09:16:45.513Z,98560
2017-08-24T09:17:45.509Z,99776
2017-08-24T09:18:45.513Z,98560
2017-08-24T09:19:45.492Z,97568
2017-08-24T09:20:45.489Z,97120
2017-08-24T09:21:45.489Z,97632
2017-08-24T09:22:45.479Z,98496
2017-08-24T09:23:45.485Z,98336
2017-08-24T09:24:45.153Z,95072
2017-08-24T09:25:45.471Z,92096
2017-08-24T09:26:45.474Z,90528
2017-08-24T09:27:45.774Z,90880
2017-08-24T09:28:45.764Z,90656
2017-08-24T09:29:45.130Z,89408
2017-08-24T09:30:45.753Z,87712
2017-08-24T09:31:45.741Z,87328
2017-08-24T09:32:45.419Z,85728
2017-08-24T09:33:45.404Z,81376
2017-08-24T09:34:45.412Z,82368
2017-08-24T09:35:45.401Z,84896
2017-08-24T09:36:45.701Z,82432
2017-08-24T09:37:45.392Z,81184
2017-08-24T09:38:45.706Z,81824
2017-08-24T09:39:45.375Z,81824
2017-08-24T09:40:45.377Z,81728
2017-08-24T09:41:45.048Z,84480
2017-08-24T09:42:45.352Z,87008
2017-08-24T09:43:45.344Z,78176
2017-08-24T09:44:45.348Z,83168
2017-08-24T09:45:45.343Z,96992
2017-08-24T09:46:45.644Z,79584
2017-08-24T09:47:45.325Z,78208
2017-08-24T09:48:45.330Z,54976
2017-08-24T09:49:45.314Z,71904
2017-08-24T09:50:45.311Z,83008
2017-08-24T09:51:44.994Z,71968
2017-08-24T09:52:45.604Z,106464
2017-08-24T09:53:45.340Z,61664
2017-08-24T09:54:45.604Z,69472
2017-08-24T09:55:45.590Z,86816
2017-08-24T09:56:45.579Z,112928
2017-08-24T09:57:45.571Z,56224
2017-08-24T09:58:45.577Z,42432
2017-08-24T09:59:45.259Z,36384
2017-08-24T10:00:45.572Z,36448
2017-08-24T10:01:45.564Z,39232
2017-08-24T10:02:45.563Z,97760
2017-08-24T10:03:45.537Z,91264
2017-08-24T10:04:45.224Z,88896
2017-08-24T10:05:45.236Z,87136
2017-08-24T10:06:44.916Z,73472
2017-08-24T10:07:45.204Z,65792
2017-08-24T10:08:45.527Z,83264
2017-08-24T10:09:45.511Z,93536
2017-08-24T10:10:44.885Z,102368
2017-08-24T10:11:44.883Z,103168
2017-08-24T10:12:45.503Z,99296
2017-08-24T10:13:44.862Z,90240
2017-08-24T10:14:45.171Z,88064
2017-08-24T10:15:45.165Z,91200
2017-08-24T10:16:45.472Z,93760
2017-08-24T10:17:45.474Z,90368
2017-08-24T10:18:45.465Z,87488
2017-08-24T10:19:45.466Z,87392
2017-08-24T10:20:44.826Z,84288
2017-08-24T10:21:45.130Z,81216
2017-08-24T10:22:44.811Z,76032
2017-08-24T10:23:45.440Z,77952
2017-08-24T10:24:45.414Z,80064
2017-08-24T10:25:45.427Z,85376
2017-08-24T10:26:45.100Z,88576
2017-08-24T10:27:45.103Z,91968
2017-08-24T10:28:45.556Z,91264
2017-08-24T10:29:45.256Z,90816
2017-08-24T10:30:45.592Z,91360
2017-08-24T10:31:45.511Z,96320
2017-08-24T10:32:45.389Z,95360
2017-08-24T10:33:45.074Z,94368
2017-08-24T10:34:45.371Z,94464
2017-08-24T10:35:45.412Z,95040
2017-08-24T10:36:45.058Z,91328
2017-08-24T10:37:45.366Z,89184
2017-08-24T10:38:45.358Z,90176
2017-08-24T10:39:45.358Z,93472
2017-08-24T10:40:45.360Z,92672
2017-08-24T10:41:45.349Z,84960
2017-08-24T10:42:45.349Z,79712
2017-08-24T10:43:45.368Z,78272
2017-08-24T10:44:45.327Z,81888
2017-08-24T10:45:45.014Z,86528
2017-08-24T10:46:45.339Z,86016
2017-08-24T10:47:45.314Z,83392
2017-08-24T10:48:45.321Z,84352
2017-08-24T10:49:44.989Z,82112
2017-08-24T10:50:45.293Z,76960
2017-08-24T10:51:45.295Z,74432
2017-08-24T10:52:45.292Z,58720
2017-08-24T10:53:45.299Z,83616
2017-08-24T10:54:45.293Z,83360
2017-08-24T10:55:45.288Z,79424
2017-08-24T10:56:45.267Z,77312
2017-08-24T10:57:45.276Z,78560
2017-08-24T10:58:45.269Z,80576
2017-08-24T10:59:44.942Z,81664
2017-08-24T11:00:45.252Z,85280
2017-08-24T11:01:45.253Z,90144
2017-08-24T11:02:44.943Z,91904
2017-08-24T11:03:45.239Z,88256
2017-08-24T11:04:45.249Z,85696
2017-08-24T11:05:45.221Z,86720
2017-08-24T11:06:45.236Z,87168
2017-08-24T11:07:45.231Z,90144
2017-08-24T11:08:45.209Z,92096
2017-08-24T11:09:45.216Z,94752
2017-08-24T11:10:45.208Z,90432
2017-08-24T11:11:44.954Z,87200
2017-08-24T11:12:44.891Z,90432
2017-08-24T11:13:45.198Z,91360
2017-08-24T11:14:45.242Z,87744
2017-08-24T11:15:45.195Z,87552
2017-08-24T11:16:45.213Z,95040
2017-08-24T11:17:45.188Z,102080
2017-08-24T11:18:45.175Z,106144
2017-08-24T11:19:45.170Z,104672
2017-08-24T11:20:44.860Z,104352
2017-08-24T11:21:45.166Z,106720
2017-08-24T11:22:45.162Z,113280
2017-08-24T11:23:45.141Z,110560
2017-08-24T11:24:45.161Z,100352
2017-08-24T11:25:44.835Z,98176
2017-08-24T11:26:45.133Z,106336
2017-08-24T11:27:45.130Z,113312
2017-08-24T11:28:45.128Z,148576
2017-08-24T11:29:45.133Z,54176
2017-08-24T11:30:45.129Z,152064
2017-08-24T11:31:44.807Z,57280
2017-08-24T11:32:44.805Z,128640
2017-08-24T11:33:44.795Z,97536
2017-08-24T11:34:45.113Z,97376
2017-08-24T11:35:44.800Z,100032
2017-08-24T11:36:45.087Z,104352
2017-08-24T11:37:44.782Z,107072
2017-08-24T11:38:44.782Z,108672
2017-08-24T11:39:44.781Z,107136
2017-08-24T11:40:45.083Z,105344
2017-08-24T11:41:45.076Z,105952
2017-08-24T11:42:44.133Z,105632
2017-08-24T11:43:45.060Z,105312
2017-08-24T11:44:44.745Z,106464
2017-08-24T11:45:45.129Z,34464
2017-08-24T11:46:45.218Z,106592
2017-08-24T11:47:45.039Z,26432
2017-08-24T11:48:45.040Z,110464
2017-08-24T11:49:45.036Z,36320
2017-08-24T11:50:44.732Z,28832
2017-08-24T11:51:44.719Z,80384
2017-08-24T11:52:44.707Z,91328
2017-08-24T11:53:45.030Z,98496
2017-08-24T11:54:44.699Z,94336
2017-08-24T11:55:45.010Z,94912
2017-08-24T11:56:44.998Z,97408
2017-08-24T11:57:44.997Z,100352
2017-08-24T11:58:45.001Z,106432
2017-08-24T11:59:44.994Z,109696
2017-08-24T12:00:44.975Z,113248
2017-08-24T12:01:45.001Z,115904
2017-08-24T12:02:44.676Z,119264
2017-08-24T12:03:44.977Z,130272
2017-08-24T12:04:44.989Z,70720
2017-08-24T12:05:44.972Z,132000
2017-08-24T12:06:44.965Z,128448
2017-08-24T12:07:44.966Z,124768
2017-08-24T12:08:44.966Z,126720
2017-08-24T12:09:44.962Z,130208
2017-08-24T12:10:44.951Z,132992
2017-08-24T12:11:44.942Z,84928
2017-08-24T12:12:44.934Z,129024
2017-08-24T12:13:44.938Z,48544
2017-08-24T12:14:44.944Z,127648
2017-08-24T12:15:44.941Z,124576
2017-08-24T12:16:44.932Z,123840
2017-08-24T12:17:44.621Z,123392
2017-08-24T12:18:44.923Z,85632
2017-08-24T12:19:44.934Z,117088
2017-08-24T12:20:44.921Z,38592
2017-08-24T12:21:44.922Z,34816
2017-08-24T12:22:44.908Z,38240
2017-08-24T12:23:44.918Z,72352
2017-08-24T12:24:44.908Z,136608
2017-08-24T12:25:44.624Z,134016
2017-08-24T12:26:44.909Z,62656
2017-08-24T12:27:44.906Z,128864
2017-08-24T12:28:44.591Z,124480
2017-08-24T12:29:44.898Z,118528
2017-08-24T12:30:44.596Z,118496
2017-08-24T12:31:44.901Z,119872
2017-08-24T12:32:44.885Z,77504
2017-08-24T12:33:44.888Z,113568
2017-08-24T12:34:44.884Z,94368
2017-08-24T12:35:44.890Z,112160
2017-08-24T12:36:44.885Z,113856
2017-08-24T12:37:44.564Z,111040
2017-08-24T12:38:44.870Z,112032
2017-08-24T12:39:44.878Z,107776
2017-08-24T12:40:44.874Z,104608
2017-08-24T12:41:44.865Z,28384
2017-08-24T12:42:44.874Z,49952
2017-08-24T12:43:44.847Z,31840
2017-08-24T12:44:44.857Z,28992
2017-08-24T12:45:44.542Z,27232
2017-08-24T12:46:44.843Z,25824
2017-08-24T12:47:44.835Z,25120
2017-08-24T12:48:44.520Z,120864
2017-08-24T12:49:44.844Z,107136
2017-08-24T12:50:44.834Z,104320
2017-08-24T12:51:44.819Z,102112
2017-08-24T12:52:44.525Z,93760
2017-08-24T12:53:44.512Z,88448
2017-08-24T12:54:44.185Z,100384
2017-08-24T12:55:44.807Z,115232
2017-08-24T12:56:44.501Z,121952
2017-08-24T12:57:44.808Z,115552
2017-08-24T12:58:44.502Z,105408
2017-08-24T12:59:44.801Z,107168
2017-08-24T13:00:44.801Z,30176
2017-08-24T13:01:44.783Z,40480
2017-08-24T13:02:44.800Z,101152
2017-08-24T13:03:44.787Z,78048
2017-08-24T13:04:44.468Z,40000
2017-08-24T13:05:44.808Z,55808
2017-08-24T13:06:44.471Z,30752
2017-08-24T13:07:44.764Z,29536
2017-08-24T13:08:44.769Z,60736
2017-08-24T13:09:44.770Z,126080
2017-08-24T13:10:44.456Z,105024
2017-08-24T13:11:44.442Z,37696
2017-08-24T13:12:44.763Z,33888
2017-08-24T13:13:44.751Z,42976
2017-08-24T13:14:44.436Z,37920
2017-08-24T13:15:44.733Z,33376
2017-08-24T13:16:44.746Z,35008
2017-08-24T13:17:44.741Z,34656
2017-08-24T13:18:44.734Z,35872
2017-08-24T13:19:44.739Z,50336
2017-08-24T13:20:44.731Z,48736
2017-08-24T13:21:44.722Z,107808
2017-08-24T13:22:44.408Z,122528
2017-08-24T13:23:44.718Z,129920
2017-08-24T13:24:44.708Z,56800
2017-08-24T13:25:44.718Z,44320
2017-08-24T13:26:44.401Z,39328
2017-08-24T13:27:44.698Z,36928